• Join FlightAware (Why Join?)
  • Login
  • US Flag 
02:39AM EDT


 

Airport Tracker/Info


-or-


 

Live Flight TrackerFlight Track Log ✈ N40GS ✈ 19-Jul-2013 ✈ KBZN - KSTS

Flight Track Log - Related Links

Times and Time Zones

All times are in EDT time to prevent confusion due to time zone crossing. See the N40GS flight status page for this flight to view local times or setup timezone preferences in your user account.

Time Position Orientation Groundspeed Altitude Reporting Facility
EDT Latitude Longitude Course Direction KTS MPH feet Rate Location/Type
03:00PM 45.6994 -111.2308 248° West 246 283 8,800  Level Salt Lake Center
03:01PM 45.5238 -111.7131 199° South  Level FlightAware Approximate
03:01PM 45.7092 -111.3225 279° West 233 268 11,100  Level Salt Lake Center
03:02PM 45.4252 -111.7552 195° South  Level FlightAware Approximate
03:02PM 45.6728 -111.4356 245° Southwest 261 300 13,000  Level Salt Lake Center
03:03PM 45.3252 -111.7901 191° South  Level FlightAware Approximate
03:04PM 45.2240 -111.8177 191° South  Level FlightAware Approximate
03:04PM 45.6308 -111.5317 238° Southwest 279 321 15,300  Level Salt Lake Center
03:05PM 45.1233 -111.8478 193° South  Level FlightAware Approximate
03:05PM 45.5883 -111.6300 238° Southwest 287 330 17,100  Level Salt Lake Center
03:06PM 45.5444 -111.7308 238° Southwest 297 342 18,900 1,680 Climbing Salt Lake Center
03:07PM 45.5003 -111.8342 239° Southwest 304 350 20,600 1,620 Climbing Salt Lake Center
03:08PM 45.4544 -111.9392 238° Southwest 311 358 22,300 1,500 Climbing Salt Lake Center
03:10PM 45.3494 -112.1800 238° Southwest 330 380 25,400 1,440 Climbing Salt Lake Center
03:11PM 45.3019 -112.2886 238° Southwest 336 387 26,900 1,260 Climbing Salt Lake Center
03:12PM 45.2456 -112.4164 238° Southwest 343 395 28,100 1,320 Climbing Salt Lake Center
03:13PM 45.1964 -112.5267 238° Southwest 345 397 29,700 1,500 Climbing Salt Lake Center
03:14PM 45.1414 -112.6503 238° Southwest 336 387 31,300 1,440 Climbing Salt Lake Center
03:15PM 45.0933 -112.7572 238° Southwest 336 387 32,700 1,260 Climbing Salt Lake Center
03:16PM 45.0392 -112.8775 238° Southwest 328 377 34,000 600 Climbing Salt Lake Center
03:17PM 44.9906 -112.9864 238° Southwest 341 392 34,000  Level Salt Lake Center
03:18PM 44.9294 -113.1239 238° Southwest 369 425 34,000  Level Salt Lake Center
03:19PM 44.8728 -113.2467 237° Southwest 389 448 34,000  Level Salt Lake Center
03:20PM 44.8067 -113.3911 237° Southwest 394 453 34,000  Level Salt Lake Center
03:21PM 44.7497 -113.5144 237° Southwest 394 453 34,000  Level Salt Lake Center
03:22PM 44.6825 -113.6600 237° Southwest 396 456 34,000  Level Salt Lake Center
03:23PM 44.6247 -113.7861 237° Southwest 400 460 34,000  Level Salt Lake Center
03:24PM 44.5581 -113.9297 237° Southwest 395 455 34,000  Level Salt Lake Center
03:25PM 44.5022 -114.0478 236° Southwest 398 458 34,000  Level Salt Lake Center
03:26PM 44.4358 -114.1928 237° Southwest 397 457 34,000  Level Salt Lake Center
03:27PM 44.3767 -114.3156 236° Southwest 397 457 34,000  Level Salt Lake Center
03:28PM 44.3081 -114.4594 236° Southwest 398 458 34,000  Level Salt Lake Center
03:29PM 44.2494 -114.5831 237° Southwest 399 459 34,000  Level Salt Lake Center
03:30PM 44.1817 -114.7250 236° Southwest 395 455 34,000  Level Salt Lake Center
03:31PM 44.1172 -114.8417 232° Southwest 394 453 34,000  Level Salt Lake Center
03:32PM 44.0364 -114.9711 229° Southwest 395 455 34,000  Level Salt Lake Center
03:34PM 43.9650 -115.0853 229° Southwest 407 468 34,000  Level Salt Lake Center
03:35PM 43.8978 -115.1950 230° Southwest 392 451 34,000  Level Salt Lake Center
03:36PM 43.8167 -115.3256 229° Southwest 398 458 34,000  Level Salt Lake Center
03:37PM 43.7478 -115.4358 229° Southwest 395 455 34,000  Level Salt Lake Center
03:38PM 43.6669 -115.5658 229° Southwest 397 457 34,000  Level Salt Lake Center
03:39PM 43.5981 -115.6767 229° Southwest 397 457 34,000  Level Salt Lake Center
03:40PM 43.5172 -115.8042 229° Southwest 394 453 34,000  Level Salt Lake Center
03:41PM 43.4486 -115.9133 229° Southwest 394 453 34,000  Level Salt Lake Center
03:42PM 43.3678 -116.0411 229° Southwest 394 453 34,000  Level Salt Lake Center
03:43PM 43.2978 -116.1508 229° Southwest 397 457 34,000  Level Salt Lake Center
03:44PM 43.2278 -116.2581 228° Southwest 394 453 34,000  Level Salt Lake Center
03:45PM 43.1464 -116.3844 229° Southwest 396 456 34,000  Level Salt Lake Center
03:46PM 43.0769 -116.4922 229° Southwest 394 453 34,000  Level Salt Lake Center
03:47PM 42.9956 -116.6175 228° Southwest 394 453 34,000  Level Salt Lake Center
03:48PM 42.9258 -116.7250 228° Southwest 395 455 34,000  Level Salt Lake Center
03:49PM 42.8442 -116.8494 228° Southwest 396 456 34,000  Level Salt Lake Center
03:50PM 42.7739 -116.9558 228° Southwest 394 453 34,000  Level Salt Lake Center
03:51PM 42.6925 -117.0800 228° Southwest 396 456 34,000  Level Salt Lake Center
03:52PM 42.6228 -117.1831 227° Southwest 387 445 34,000  Level Salt Lake Center
03:53PM 42.5411 -117.3086 229° Southwest 398 458 34,000  Level Salt Lake Center
03:54PM 42.4706 -117.4117 227° Southwest 390 449 34,000  Level Salt Lake Center
03:55PM 42.4011 -117.5172 228° Southwest 392 451 34,000  Level Salt Lake Center
03:56PM 42.3186 -117.6378 227° Southwest 391 450 34,000  Level Salt Lake Center
03:57PM 42.2481 -117.7406 227° Southwest 391 450 34,000  Level Salt Lake Center
03:59PM 42.0989 -117.9667 228° Southwest 391 450 34,000  Level Salt Lake Center
04:00PM 42.0153 -118.0869 227° Southwest 393 452 34,000  Level Salt Lake Center
04:01PM 41.9458 -118.1886 227° Southwest 388 447 34,000  Level Salt Lake Center
04:02PM 41.8636 -118.3089 227° Southwest 391 450 34,000  Level Salt Lake Center
04:04PM 41.7917 -118.4133 227° Southwest 398 458 34,000  Level Salt Lake Center
04:05PM 41.7100 -118.5319 227° Southwest 391 450 34,000  Level Salt Lake Center
04:06PM 41.6389 -118.6331 227° Southwest 390 449 34,000  Level Salt Lake Center
04:07PM 41.5686 -118.7319 226° Southwest 390 449 34,000  Level Oakland Center
04:08PM 41.4861 -118.8508 227° Southwest 390 449 34,000  Level Oakland Center
04:09PM 41.4150 -118.9517 227° Southwest 390 449 34,000  Level Oakland Center
04:10PM 41.3319 -119.0692 227° Southwest 392 451 34,000  Level Oakland Center
04:11PM 41.2594 -119.1708 227° Southwest 393 452 34,000  Level Oakland Center
04:12PM 41.1761 -119.2889 227° Southwest 394 453 34,000  Level Oakland Center
04:13PM 41.1050 -119.3894 227° Southwest 391 450 34,000  Level Oakland Center
04:14PM 41.0328 -119.4889 226° Southwest 392 451 34,000  Level Oakland Center
04:15PM 40.9478 -119.6067 226° Southwest 393 452 34,000  Level Oakland Center
04:16PM 40.8936 -119.6844 227° Southwest 390 449 34,000  Level Seattle Center
04:17PM 40.8175 -119.7886 226° Southwest 392 451 34,000  Level Seattle Center
04:18PM 40.7428 -119.8919 226° Southwest 390 449 34,000  Level Seattle Center
04:19PM 40.6675 -119.9958 226° Southwest 392 451 34,000  Level Seattle Center
04:20PM 40.5922 -120.1006 227° Southwest 392 451 34,000  Level Seattle Center
04:21PM 40.5147 -120.2039 225° Southwest 394 453 34,000  Level Seattle Center
04:22PM 40.4400 -120.3053 226° Southwest 389 448 34,000  Level Seattle Center
04:23PM 40.3503 -120.4267 226° Southwest 391 450 34,000  Level Seattle Center
04:24PM 40.2731 -120.5292 225° Southwest 394 453 34,000  Level Seattle Center
04:25PM 40.1969 -120.6319 226° Southwest 393 452 34,000  Level Seattle Center
04:26PM 40.1192 -120.7356 226° Southwest 396 456 34,000  Level Seattle Center
04:27PM 40.0106 -120.8789 225° Southwest 390 449 34,000  Level Oakland Center
04:28PM 39.9322 -120.9792 224° Southwest 392 451 34,000  Level Oakland Center
04:29PM 39.8550 -121.0814 225° Southwest 395 455 34,000 -360 Level Oakland Center
04:30PM 39.7778 -121.1847 226° Southwest 398 458 33,300 -1,020 Descending Oakland Center
04:31PM 39.6992 -121.2903 226° Southwest 404 465 31,900 -1,620 Descending Oakland Center
04:32PM 39.6194 -121.3933 225° Southwest 403 464 30,100 -1,800 Descending Oakland Center
04:33PM 39.5383 -121.4983 225° Southwest 409 471 28,300 -2,040 Descending Oakland Center
04:34PM 39.4428 -121.6222 225° Southwest 411 473 26,000 -2,100 Descending Oakland Center
04:35PM 39.3622 -121.7264 225° Southwest 411 473 24,100 -1,860 Descending Oakland Center
04:36PM 39.2825 -121.8311 225° Southwest 411 473 22,200 -1,860 Descending Oakland Center
04:37PM 39.2044 -121.9319 225° Southwest 401 461 20,300 -1,740 Descending Oakland Center
04:38PM 39.1303 -122.0292 225° Southwest 384 442 18,700 -1,800 Descending Oakland Center
04:39PM 39.0597 -122.1178 224° Southwest 360 414 16,700 -1,920 Descending Oakland Center
04:40PM 38.9897 -122.2069 225° Southwest 354 407 14,800 -2,100 Descending Oakland Center
04:41PM 38.9139 -122.3053 225° Southwest 319 367 12,400 -2,160 Descending Oakland Center
04:42PM 38.8553 -122.3775 224° Southwest 293 337 10,400 -2,100 Descending Oakland Center
04:44PM 38.7975 -122.4519 225° Southwest 292 336 8,100 -1,680 Descending Oakland Center
04:45PM 38.7422 -122.5225 225° Southwest 289 333 7,000 -540 Descending Oakland Center
04:46PM 38.6881 -122.5894 224° Southwest 276 318 7,000 -420 Level Oakland Center
04:47PM 38.6514 -122.6681 239° Southwest 265 305 6,200 -1,320 Descending Oakland Center
04:48PM 38.6222 -122.7656 249° West 251 289 4,400 -1,620 Descending Oakland Center
04:49PM 38.5900 -122.8178 232° Southwest 211 243 3,000 -1,560 Descending Oakland Center
04:50PM 38.5522 -122.8339 198° South 173 199 1,200 -1,320 Descending Oakland Center
04:51PM 38.5206 -122.8164 157° South 142 163 300 -900 Descending Oakland Center